sensor_id;sensor_type;location;lat;lon;timestamp;P1;durP1;ratioP1;P2;durP2;ratioP2
22969;SDS011;11651;52.136;5.572;2022-07-31T01:57:02;5.93;;;5.10;;
22969;SDS011;11651;52.136;5.572;2022-07-31T02:00:21;6.68;;;5.88;;
22969;SDS011;11651;52.136;5.572;2022-07-31T02:02:55;6.30;;;5.65;;
22969;SDS011;11651;52.136;5.572;2022-07-31T02:05:24;7.00;;;6.30;;
22969;SDS011;11651;52.136;5.572;2022-07-31T02:08:05;10.65;;;7.45;;
22969;SDS011;11651;52.136;5.572;2022-07-31T02:10:33;9.23;;;7.00;;
22969;SDS011;11651;52.136;5.572;2022-07-31T02:13:15;10.10;;;7.60;;
22969;SDS011;11651;52.136;5.572;2022-07-31T02:15:47;8.63;;;6.72;;
22969;SDS011;11651;52.136;5.572;2022-07-31T02:18:25;8.00;;;6.75;;
22969;SDS011;11651;52.136;5.572;2022-07-31T02:20:58;7.82;;;6.80;;
22969;SDS011;11651;52.136;5.572;2022-07-31T02:23:32;8.10;;;7.30;;
22969;SDS011;11651;52.136;5.572;2022-07-31T02:26:18;8.00;;;6.25;;
22969;SDS011;11651;52.136;5.572;2022-07-31T02:28:54;8.23;;;7.35;;
22969;SDS011;11651;52.136;5.572;2022-07-31T02:31:21;9.70;;;7.40;;
22969;SDS011;11651;52.136;5.572;2022-07-31T02:33:48;8.35;;;7.50;;
22969;SDS011;11651;52.136;5.572;2022-07-31T02:36:18;8.15;;;7.28;;
22969;SDS011;11651;52.136;5.572;2022-07-31T02:38:48;9.57;;;7.32;;
22969;SDS011;11651;52.136;5.572;2022-07-31T02:41:19;9.65;;;6.82;;
22969;SDS011;11651;52.136;5.572;2022-07-31T02:44:14;8.25;;;7.43;;
22969;SDS011;11651;52.136;5.572;2022-07-31T02:46:43;8.68;;;7.20;;
22969;SDS011;11651;52.136;5.572;2022-07-31T02:49:11;8.05;;;7.10;;
22969;SDS011;11651;52.136;5.572;2022-07-31T02:51:38;8.65;;;7.80;;
22969;SDS011;11651;52.136;5.572;2022-07-31T02:54:08;8.55;;;7.75;;
22969;SDS011;11651;52.136;5.572;2022-07-31T02:56:38;8.02;;;7.15;;
22969;SDS011;11651;52.136;5.572;2022-07-31T03:01:53;7.85;;;7.05;;
22969;SDS011;11651;52.136;5.572;2022-07-31T03:04:21;7.53;;;6.57;;
22969;SDS011;11651;52.136;5.572;2022-07-31T03:06:55;7.05;;;6.05;;
22969;SDS011;11651;52.136;5.572;2022-07-31T03:09:30;9.18;;;6.70;;
22969;SDS011;11651;52.136;5.572;2022-07-31T03:12:08;8.80;;;6.82;;
22969;SDS011;11651;52.136;5.572;2022-07-31T03:14:36;8.77;;;7.95;;
22969;SDS011;11651;52.136;5.572;2022-07-31T03:17:10;8.10;;;7.28;;
22969;SDS011;11651;52.136;5.572;2022-07-31T03:19:36;10.70;;;7.88;;
22969;SDS011;11651;52.136;5.572;2022-07-31T03:22:05;8.07;;;7.38;;
22969;SDS011;11651;52.136;5.572;2022-07-31T03:24:34;9.77;;;7.25;;
22969;SDS011;11651;52.136;5.572;2022-07-31T03:27:25;7.95;;;6.75;;
22969;SDS011;11651;52.136;5.572;2022-07-31T03:30:24;10.75;;;8.35;;
22969;SDS011;11651;52.136;5.572;2022-07-31T03:33:10;8.35;;;7.53;;
22969;SDS011;11651;52.136;5.572;2022-07-31T03:35:41;8.10;;;7.40;;
22969;SDS011;11651;52.136;5.572;2022-07-31T03:38:17;10.15;;;8.23;;
22969;SDS011;11651;52.136;5.572;2022-07-31T03:40:45;8.60;;;7.88;;
22969;SDS011;11651;52.136;5.572;2022-07-31T03:43:14;8.77;;;7.97;;
22969;SDS011;11651;52.136;5.572;2022-07-31T03:45:42;10.68;;;8.00;;
22969;SDS011;11651;52.136;5.572;2022-07-31T03:48:19;12.82;;;9.18;;
22969;SDS011;11651;52.136;5.572;2022-07-31T03:50:50;12.07;;;8.10;;
22969;SDS011;11651;52.136;5.572;2022-07-31T03:53:21;11.23;;;8.90;;
22969;SDS011;11651;52.136;5.572;2022-07-31T03:55:48;11.02;;;8.50;;
22969;SDS011;11651;52.136;5.572;2022-07-31T03:58:21;9.95;;;8.75;;
22969;SDS011;11651;52.136;5.572;2022-07-31T04:00:48;8.57;;;7.25;;
22969;SDS011;11651;52.136;5.572;2022-07-31T04:03:28;11.63;;;8.85;;
22969;SDS011;11651;52.136;5.572;2022-07-31T04:06:04;11.10;;;8.43;;
22969;SDS011;11651;52.136;5.572;2022-07-31T04:08:46;11.18;;;8.65;;
22969;SDS011;11651;52.136;5.572;2022-07-31T04:11:32;9.18;;;7.90;;
22969;SDS011;11651;52.136;5.572;2022-07-31T04:14:03;16.45;;;9.23;;
22969;SDS011;11651;52.136;5.572;2022-07-31T04:16:31;9.20;;;8.30;;
22969;SDS011;11651;52.136;5.572;2022-07-31T04:18:59;10.73;;;8.60;;
22969;SDS011;11651;52.136;5.572;2022-07-31T04:21:28;10.35;;;7.97;;
22969;SDS011;11651;52.136;5.572;2022-07-31T04:24:11;9.88;;;8.35;;
22969;SDS011;11651;52.136;5.572;2022-07-31T04:26:43;8.93;;;7.95;;
22969;SDS011;11651;52.136;5.572;2022-07-31T04:29:11;12.85;;;8.95;;
22969;SDS011;11651;52.136;5.572;2022-07-31T04:31:43;12.10;;;8.30;;
22969;SDS011;11651;52.136;5.572;2022-07-31T04:34:11;9.90;;;7.80;;
22969;SDS011;11651;52.136;5.572;2022-07-31T04:36:44;10.32;;;8.30;;
22969;SDS011;11651;52.136;5.572;2022-07-31T04:39:14;12.13;;;8.40;;
22969;SDS011;11651;52.136;5.572;2022-07-31T04:41:42;16.48;;;8.93;;
22969;SDS011;11651;52.136;5.572;2022-07-31T04:44:15;9.95;;;8.35;;
22969;SDS011;11651;52.136;5.572;2022-07-31T04:46:47;13.85;;;8.40;;
22969;SDS011;11651;52.136;5.572;2022-07-31T04:49:50;11.25;;;7.32;;
22969;SDS011;11651;52.136;5.572;2022-07-31T04:52:21;10.93;;;8.05;;
22969;SDS011;11651;52.136;5.572;2022-07-31T04:54:49;12.50;;;7.93;;
22969;SDS011;11651;52.136;5.572;2022-07-31T04:57:18;12.27;;;8.50;;
22969;SDS011;11651;52.136;5.572;2022-07-31T04:59:49;8.48;;;7.68;;
22969;SDS011;11651;52.136;5.572;2022-07-31T05:02:23;14.40;;;8.45;;
22969;SDS011;11651;52.136;5.572;2022-07-31T05:04:50;9.73;;;8.70;;
22969;SDS011;11651;52.136;5.572;2022-07-31T05:07:18;12.65;;;8.88;;
22969;SDS011;11651;52.136;5.572;2022-07-31T05:09:44;11.70;;;8.70;;
22969;SDS011;11651;52.136;5.572;2022-07-31T05:12:12;17.65;;;10.07;;
22969;SDS011;11651;52.136;5.572;2022-07-31T05:14:41;15.43;;;9.30;;
22969;SDS011;11651;52.136;5.572;2022-07-31T05:17:15;12.70;;;10.55;;
22969;SDS011;11651;52.136;5.572;2022-07-31T05:19:41;16.67;;;10.45;;
22969;SDS011;11651;52.136;5.572;2022-07-31T05:22:22;10.35;;;9.23;;
22969;SDS011;11651;52.136;5.572;2022-07-31T05:24:50;13.68;;;9.88;;
22969;SDS011;11651;52.136;5.572;2022-07-31T05:27:21;12.18;;;9.45;;
22969;SDS011;11651;52.136;5.572;2022-07-31T05:29:49;12.38;;;8.73;;
22969;SDS011;11651;52.136;5.572;2022-07-31T05:32:20;11.23;;;9.85;;
22969;SDS011;11651;52.136;5.572;2022-07-31T05:34:52;12.15;;;10.02;;
22969;SDS011;11651;52.136;5.572;2022-07-31T05:37:37;12.68;;;10.73;;
22969;SDS011;11651;52.136;5.572;2022-07-31T05:40:30;12.95;;;9.52;;
22969;SDS011;11651;52.136;5.572;2022-07-31T05:43:05;13.63;;;11.13;;
22969;SDS011;11651;52.136;5.572;2022-07-31T05:45:40;12.82;;;9.30;;
22969;SDS011;11651;52.136;5.572;2022-07-31T05:48:11;11.35;;;9.77;;
22969;SDS011;11651;52.136;5.572;2022-07-31T05:50:45;16.17;;;10.90;;
22969;SDS011;11651;52.136;5.572;2022-07-31T05:53:43;12.23;;;10.02;;
22969;SDS011;11651;52.136;5.572;2022-07-31T05:56:17;13.35;;;9.15;;
22969;SDS011;11651;52.136;5.572;2022-07-31T05:58:53;13.23;;;10.00;;
22969;SDS011;11651;52.136;5.572;2022-07-31T06:01:30;12.13;;;9.40;;
22969;SDS011;11651;52.136;5.572;2022-07-31T06:03:56;11.95;;;9.18;;
22969;SDS011;11651;52.136;5.572;2022-07-31T06:06:34;14.13;;;10.18;;
22969;SDS011;11651;52.136;5.572;2022-07-31T06:09:02;13.75;;;11.02;;
22969;SDS011;11651;52.136;5.572;2022-07-31T06:11:28;13.27;;;11.00;;
22969;SDS011;11651;52.136;5.572;2022-07-31T06:14:05;14.85;;;9.65;;
22969;SDS011;11651;52.136;5.572;2022-07-31T06:16:37;11.45;;;10.23;;
22969;SDS011;11651;52.136;5.572;2022-07-31T06:19:07;14.15;;;9.80;;
22969;SDS011;11651;52.136;5.572;2022-07-31T06:21:33;12.88;;;9.95;;
22969;SDS011;11651;52.136;5.572;2022-07-31T06:24:03;11.32;;;9.50;;
22969;SDS011;11651;52.136;5.572;2022-07-31T06:26:38;12.25;;;10.02;;
22969;SDS011;11651;52.136;5.572;2022-07-31T06:32:20;13.07;;;9.60;;
22969;SDS011;11651;52.136;5.572;2022-07-31T06:34:46;12.77;;;9.65;;
22969;SDS011;11651;52.136;5.572;2022-07-31T06:37:22;12.48;;;10.18;;
22969;SDS011;11651;52.136;5.572;2022-07-31T06:39:55;11.73;;;9.65;;
22969;SDS011;11651;52.136;5.572;2022-07-31T06:42:28;13.25;;;10.65;;
22969;SDS011;11651;52.136;5.572;2022-07-31T06:44:56;18.77;;;10.82;;
22969;SDS011;11651;52.136;5.572;2022-07-31T06:47:23;12.50;;;10.40;;
22969;SDS011;11651;52.136;5.572;2022-07-31T06:49:53;13.50;;;10.95;;
22969;SDS011;11651;52.136;5.572;2022-07-31T06:52:19;16.67;;;10.45;;
22969;SDS011;11651;52.136;5.572;2022-07-31T06:54:48;15.70;;;11.07;;
22969;SDS011;11651;52.136;5.572;2022-07-31T06:57:16;15.45;;;11.48;;
22969;SDS011;11651;52.136;5.572;2022-07-31T06:59:45;12.93;;;11.50;;
22969;SDS011;11651;52.136;5.572;2022-07-31T07:02:15;12.63;;;10.45;;
22969;SDS011;11651;52.136;5.572;2022-07-31T07:04:44;12.35;;;10.27;;
22969;SDS011;11651;52.136;5.572;2022-07-31T07:07:15;14.27;;;11.30;;
22969;SDS011;11651;52.136;5.572;2022-07-31T07:09:44;14.07;;;10.88;;
22969;SDS011;11651;52.136;5.572;2022-07-31T07:12:09;16.15;;;11.93;;
22969;SDS011;11651;52.136;5.572;2022-07-31T07:14:38;12.15;;;10.82;;
22969;SDS011;11651;52.136;5.572;2022-07-31T07:17:04;16.33;;;12.10;;
22969;SDS011;11651;52.136;5.572;2022-07-31T07:19:32;15.48;;;11.32;;
22969;SDS011;11651;52.136;5.572;2022-07-31T07:22:03;15.35;;;12.07;;
22969;SDS011;11651;52.136;5.572;2022-07-31T07:24:31;17.90;;;11.63;;
22969;SDS011;11651;52.136;5.572;2022-07-31T07:27:04;15.30;;;11.57;;
22969;SDS011;11651;52.136;5.572;2022-07-31T07:30:01;15.98;;;11.43;;
22969;SDS011;11651;52.136;5.572;2022-07-31T07:32:33;14.10;;;11.73;;
22969;SDS011;11651;52.136;5.572;2022-07-31T07:34:59;14.75;;;11.15;;
22969;SDS011;11651;52.136;5.572;2022-07-31T07:37:54;15.25;;;12.15;;
22969;SDS011;11651;52.136;5.572;2022-07-31T07:40:44;18.52;;;12.50;;
22969;SDS011;11651;52.136;5.572;2022-07-31T07:43:29;15.65;;;12.07;;
22969;SDS011;11651;52.136;5.572;2022-07-31T07:46:00;17.42;;;12.15;;
22969;SDS011;11651;52.136;5.572;2022-07-31T07:48:26;18.48;;;12.88;;
22969;SDS011;11651;52.136;5.572;2022-07-31T07:50:55;20.85;;;14.13;;
22969;SDS011;11651;52.136;5.572;2022-07-31T07:53:21;16.38;;;12.65;;
22969;SDS011;11651;52.136;5.572;2022-07-31T07:55:50;19.65;;;14.93;;
22969;SDS011;11651;52.136;5.572;2022-07-31T07:58:22;20.88;;;15.95;;
22969;SDS011;11651;52.136;5.572;2022-07-31T08:00:48;19.98;;;15.63;;
22969;SDS011;11651;52.136;5.572;2022-07-31T08:03:16;17.65;;;14.55;;
22969;SDS011;11651;52.136;5.572;2022-07-31T08:05:44;17.65;;;15.10;;
22969;SDS011;11651;52.136;5.572;2022-07-31T08:08:43;17.60;;;14.10;;
22969;SDS011;11651;52.136;5.572;2022-07-31T08:11:11;18.17;;;15.27;;
22969;SDS011;11651;52.136;5.572;2022-07-31T08:14:03;16.13;;;14.43;;
22969;SDS011;11651;52.136;5.572;2022-07-31T08:16:28;17.10;;;15.15;;
22969;SDS011;11651;52.136;5.572;2022-07-31T08:18:59;18.88;;;15.43;;
22969;SDS011;11651;52.136;5.572;2022-07-31T08:21:28;19.52;;;14.70;;
22969;SDS011;11651;52.136;5.572;2022-07-31T08:23:58;19.13;;;14.20;;
22969;SDS011;11651;52.136;5.572;2022-07-31T08:26:32;19.77;;;15.68;;
22969;SDS011;11651;52.136;5.572;2022-07-31T08:29:32;21.75;;;16.13;;
22969;SDS011;11651;52.136;5.572;2022-07-31T08:32:18;24.05;;;15.75;;
22969;SDS011;11651;52.136;5.572;2022-07-31T08:34:46;19.42;;;15.15;;
22969;SDS011;11651;52.136;5.572;2022-07-31T08:37:25;19.13;;;14.57;;
22969;SDS011;11651;52.136;5.572;2022-07-31T08:40:21;18.85;;;15.05;;
22969;SDS011;11651;52.136;5.572;2022-07-31T08:43:12;24.15;;;17.05;;
22969;SDS011;11651;52.136;5.572;2022-07-31T08:45:39;18.85;;;16.20;;
22969;SDS011;11651;52.136;5.572;2022-07-31T08:48:26;18.88;;;16.08;;
22969;SDS011;11651;52.136;5.572;2022-07-31T08:50:59;19.27;;;16.85;;
22969;SDS011;11651;52.136;5.572;2022-07-31T08:53:30;20.95;;;16.90;;
22969;SDS011;11651;52.136;5.572;2022-07-31T08:56:04;25.00;;;19.77;;
22969;SDS011;11651;52.136;5.572;2022-07-31T08:58:33;24.55;;;18.45;;
22969;SDS011;11651;52.136;5.572;2022-07-31T09:01:00;24.60;;;19.20;;
22969;SDS011;11651;52.136;5.572;2022-07-31T09:03:32;28.25;;;20.30;;
22969;SDS011;11651;52.136;5.572;2022-07-31T09:06:03;26.92;;;19.00;;
22969;SDS011;11651;52.136;5.572;2022-07-31T09:08:54;27.77;;;21.08;;
22969;SDS011;11651;52.136;5.572;2022-07-31T09:11:23;28.23;;;20.75;;
22969;SDS011;11651;52.136;5.572;2022-07-31T09:14:26;25.33;;;20.13;;
22969;SDS011;11651;52.136;5.572;2022-07-31T09:17:13;27.25;;;19.83;;
22969;SDS011;11651;52.136;5.572;2022-07-31T09:19:48;28.40;;;21.80;;
22969;SDS011;11651;52.136;5.572;2022-07-31T09:26:31;29.98;;;22.23;;
22969;SDS011;11651;52.136;5.572;2022-07-31T09:29:18;27.38;;;21.58;;
22969;SDS011;11651;52.136;5.572;2022-07-31T09:32:05;28.65;;;21.95;;
22969;SDS011;11651;52.136;5.572;2022-07-31T09:35:04;28.23;;;23.17;;
22969;SDS011;11651;52.136;5.572;2022-07-31T09:37:53;32.22;;;25.25;;
22969;SDS011;11651;52.136;5.572;2022-07-31T09:40:36;29.73;;;23.55;;
22969;SDS011;11651;52.136;5.572;2022-07-31T09:43:16;29.27;;;22.95;;
22969;SDS011;11651;52.136;5.572;2022-07-31T09:46:00;32.05;;;24.73;;
22969;SDS011;11651;52.136;5.572;2022-07-31T09:48:27;33.58;;;24.65;;
22969;SDS011;11651;52.136;5.572;2022-07-31T09:50:59;34.63;;;26.13;;
22969;SDS011;11651;52.136;5.572;2022-07-31T09:56:11;27.48;;;22.65;;
22969;SDS011;11651;52.136;5.572;2022-07-31T09:58:40;33.40;;;24.77;;
22969;SDS011;11651;52.136;5.572;2022-07-31T10:01:07;32.83;;;25.00;;
22969;SDS011;11651;52.136;5.572;2022-07-31T10:03:38;30.45;;;23.85;;
22969;SDS011;11651;52.136;5.572;2022-07-31T10:06:13;30.85;;;24.27;;
22969;SDS011;11651;52.136;5.572;2022-07-31T10:08:41;31.20;;;25.95;;
22969;SDS011;11651;52.136;5.572;2022-07-31T10:11:13;30.60;;;26.08;;
22969;SDS011;11651;52.136;5.572;2022-07-31T10:13:43;32.88;;;26.33;;
22969;SDS011;11651;52.136;5.572;2022-07-31T10:16:14;32.42;;;25.92;;
22969;SDS011;11651;52.136;5.572;2022-07-31T10:18:48;28.15;;;25.25;;
22969;SDS011;11651;52.136;5.572;2022-07-31T10:21:24;30.70;;;25.73;;
22969;SDS011;11651;52.136;5.572;2022-07-31T10:23:59;31.83;;;25.40;;
22969;SDS011;11651;52.136;5.572;2022-07-31T10:29:14;31.95;;;25.77;;
22969;SDS011;11651;52.136;5.572;2022-07-31T10:35:08;29.77;;;23.50;;
22969;SDS011;11651;52.136;5.572;2022-07-31T11:13:07;32.72;;;29.23;;
22969;SDS011;11651;52.136;5.572;2022-07-31T11:19:36;33.42;;;29.42;;
22969;SDS011;11651;52.136;5.572;2022-07-31T11:25:50;36.65;;;31.13;;
22969;SDS011;11651;52.136;5.572;2022-07-31T14:23:19;10.75;;;5.40;;
22969;SDS011;11651;52.136;5.572;2022-07-31T15:02:02;8.82;;;4.45;;
22969;SDS011;11651;52.136;5.572;2022-07-31T15:18:45;5.00;;;4.50;;
22969;SDS011;11651;52.136;5.572;2022-07-31T15:24:52;9.85;;;5.53;;
22969;SDS011;11651;52.136;5.572;2022-07-31T16:20:44;9.88;;;8.45;;
22969;SDS011;11651;52.136;5.572;2022-07-31T16:23:53;10.15;;;8.57;;
22969;SDS011;11651;52.136;5.572;2022-07-31T16:26:56;10.45;;;9.40;;
22969;SDS011;11651;52.136;5.572;2022-07-31T16:29:27;10.15;;;8.90;;
22969;SDS011;11651;52.136;5.572;2022-07-31T16:31:55;11.32;;;8.10;;
22969;SDS011;11651;52.136;5.572;2022-07-31T16:51:29;11.77;;;7.60;;
22969;SDS011;11651;52.136;5.572;2022-07-31T16:57:25;11.30;;;8.63;;
22969;SDS011;11651;52.136;5.572;2022-07-31T17:07:07;9.40;;;7.25;;
22969;SDS011;11651;52.136;5.572;2022-07-31T17:20:29;9.68;;;7.45;;
22969;SDS011;11651;52.136;5.572;2022-07-31T17:34:21;14.25;;;9.40;;
22969;SDS011;11651;52.136;5.572;2022-07-31T17:43:28;14.00;;;7.78;;
